Time;durP1;ratioP1;P1;durP2;ratioP2;P2;SDS_P1;SDS_P2;PMS_P1;PMS_P2;Temp;Humidity;BMP_temperature;BMP_pressure;BME280_temperature;BME280_humidity;BME280_pressure;Samples;Min_cycle;Max_cycle;Signal;HPM_P1;HPM_P2
2021/05/15 00:01:07;;;;;;;10.88;5.32;;;8.30;99.90;;;;;;5065786;28;20033;-72
2021/05/15 00:03:33;;;;;;;18.27;6.10;;;8.40;99.90;;;;;;5084918;28;20021;-72
2021/05/15 00:05:59;;;;;;;12.25;5.43;;;8.30;99.90;;;;;;5083106;28;20063;-72
2021/05/15 00:08:25;;;;;;;15.68;5.85;;;8.30;99.90;;;;;;5084550;28;20029;-72
2021/05/15 00:10:51;;;;;;;11.57;4.82;;;8.30;99.90;;;;;;5084919;28;20036;-72
2021/05/15 00:13:18;;;;;;;9.02;5.03;;;8.20;99.90;;;;;;5084541;28;20063;-73
2021/05/15 00:15:45;;;;;;;12.80;6.10;;;8.20;99.90;;;;;;5084797;28;20112;-73
2021/05/15 00:18:11;;;;;;;17.42;5.60;;;8.20;99.90;;;;;;5084835;28;20054;-71
2021/05/15 00:20:36;;;;;;;10.13;4.68;;;8.20;99.90;;;;;;5084234;28;20029;-72
2021/05/15 00:23:02;;;;;;;11.20;5.65;;;8.10;99.90;;;;;;5084583;28;20024;-72
2021/05/15 00:25:27;;;;;;;14.05;7.18;;;8.10;99.90;;;;;;5084588;28;20031;-72
2021/05/15 00:27:53;;;;;;;13.82;5.38;;;8.10;99.90;;;;;;5082997;28;20020;-73
2021/05/15 00:30:19;;;;;;;17.63;5.47;;;8.00;99.90;;;;;;5083481;28;20461;-72
2021/05/15 00:32:46;;;;;;;11.27;5.07;;;8.00;99.90;;;;;;5084649;28;20040;-72
2021/05/15 00:35:12;;;;;;;18.23;6.10;;;7.90;99.90;;;;;;5084448;28;20062;-72
2021/05/15 00:37:38;;;;;;;15.65;5.70;;;7.90;99.90;;;;;;5084367;28;20115;-72
2021/05/15 00:40:09;;;;;;;13.55;5.47;;;7.90;99.90;;;;;;5084468;28;20037;-72
2021/05/15 00:42:35;;;;;;;16.52;5.70;;;7.80;99.90;;;;;;5082756;28;20092;-73
2021/05/15 00:45:01;;;;;;;15.23;6.57;;;7.80;99.90;;;;;;5084579;28;20052;-72
2021/05/15 00:47:27;;;;;;;13.82;5.63;;;7.80;99.90;;;;;;5084193;28;20084;-72
2021/05/15 00:49:53;;;;;;;13.07;5.45;;;7.80;99.90;;;;;;5084029;28;20025;-72
2021/05/15 00:52:20;;;;;;;13.32;5.78;;;7.80;99.90;;;;;;5083899;28;20052;-73
2021/05/15 00:54:47;;;;;;;11.63;4.93;;;7.70;99.90;;;;;;5084213;28;20028;-72
2021/05/15 00:57:12;;;;;;;11.02;5.15;;;7.70;99.90;;;;;;5085400;28;20055;-72
2021/05/15 00:59:39;;;;;;;15.07;6.00;;;7.70;99.90;;;;;;5088220;28;20017;-71
2021/05/15 01:02:07;;;;;;;18.52;6.50;;;7.70;99.90;;;;;;5087851;28;20025;-74
2021/05/15 01:04:33;;;;;;;11.18;5.05;;;7.70;99.90;;;;;;5088134;28;20027;-72
2021/05/15 01:07:00;;;;;;;15.93;5.85;;;7.70;99.90;;;;;;5087949;28;20033;-72
2021/05/15 01:09:26;;;;;;;14.57;5.60;;;7.70;99.90;;;;;;5086415;28;20024;-71
2021/05/15 01:11:52;;;;;;;12.75;6.13;;;7.60;99.90;;;;;;5087887;28;20044;-74
2021/05/15 01:14:17;;;;;;;15.63;5.45;;;7.60;99.90;;;;;;5087702;28;20048;-73
2021/05/15 01:16:43;;;;;;;10.88;5.15;;;7.60;99.90;;;;;;5087883;28;20112;-73
2021/05/15 01:19:09;;;;;;;13.52;5.57;;;7.60;99.90;;;;;;5087891;28;20480;-72
2021/05/15 01:21:35;;;;;;;11.55;5.18;;;7.60;99.90;;;;;;5087484;28;20039;-73
2021/05/15 01:24:02;;;;;;;13.18;5.63;;;7.60;99.90;;;;;;5086216;28;20025;-72
2021/05/15 01:26:30;;;;;;;19.17;5.47;;;7.60;99.90;;;;;;5086507;28;20020;-73
2021/05/15 01:29:01;;;;;;;16.55;6.10;;;7.60;99.90;;;;;;5087409;28;20021;-72
2021/05/15 01:31:27;;;;;;;13.30;5.63;;;7.50;99.90;;;;;;5087355;28;20021;-71
2021/05/15 01:33:53;;;;;;;14.13;5.38;;;7.50;99.90;;;;;;5087688;28;20032;-72
2021/05/15 01:36:20;;;;;;;13.10;5.85;;;7.50;99.90;;;;;;5087261;28;20024;-73
2021/05/15 01:38:47;;;;;;;16.58;5.05;;;7.50;99.90;;;;;;5087525;28;20043;-74
2021/05/15 01:41:14;;;;;;;14.38;5.50;;;7.40;99.90;;;;;;5087767;28;20102;-73
2021/05/15 01:43:41;;;;;;;14.38;5.25;;;7.50;99.90;;;;;;5087274;28;20027;-73
2021/05/15 01:46:08;;;;;;;12.02;5.65;;;7.60;99.90;;;;;;5086073;28;20044;-73
2021/05/15 01:48:34;;;;;;;13.40;5.97;;;7.60;99.90;;;;;;5086076;28;20032;-73
2021/05/15 01:51:05;;;;;;;14.38;5.43;;;7.60;99.90;;;;;;5084372;28;20044;-72
2021/05/15 01:53:36;;;;;;;17.42;5.80;;;7.60;99.90;;;;;;5087057;28;20036;-72
2021/05/15 01:56:05;;;;;;;11.25;5.30;;;7.60;99.90;;;;;;5087301;28;20033;-72
2021/05/15 01:58:30;;;;;;;17.58;5.90;;;7.60;99.90;;;;;;5086858;28;20419;-73
2021/05/15 02:00:56;;;;;;;17.20;6.10;;;7.60;99.90;;;;;;5085836;28;20056;-73
2021/05/15 02:03:22;;;;;;;13.05;5.93;;;7.50;99.90;;;;;;5087080;28;20020;-72
2021/05/15 02:05:51;;;;;;;15.25;6.18;;;7.50;99.90;;;;;;5086640;28;20437;-73
2021/05/15 02:08:18;;;;;;;19.48;7.00;;;7.40;99.90;;;;;;5086505;28;20024;-74
2021/05/15 02:10:43;;;;;;;20.02;5.72;;;7.40;99.90;;;;;;5086736;28;20033;-73
2021/05/15 02:13:09;;;;;;;12.05;5.10;;;7.40;99.90;;;;;;5086335;28;20097;-73
2021/05/15 02:15:36;;;;;;;12.73;5.75;;;7.40;99.90;;;;;;5086710;28;20033;-74
2021/05/15 02:18:03;;;;;;;14.23;6.13;;;7.40;99.90;;;;;;5085334;28;20035;-73
2021/05/15 02:20:30;;;;;;;13.07;6.13;;;7.40;99.90;;;;;;5085040;28;20025;-73
2021/05/15 02:22:56;;;;;;;11.90;5.85;;;7.30;99.90;;;;;;5086527;28;20024;-73
2021/05/15 02:25:23;;;;;;;16.17;5.68;;;7.30;99.90;;;;;;5085161;28;20073;-73
2021/05/15 02:27:49;;;;;;;13.98;6.35;;;7.30;99.90;;;;;;5085170;28;20035;-73
2021/05/15 02:30:15;;;;;;;13.40;6.22;;;7.20;99.90;;;;;;5086876;28;20033;-73
2021/05/15 02:32:41;;;;;;;13.35;6.13;;;7.20;99.90;;;;;;5086019;28;20040;-72
2021/05/15 02:35:07;;;;;;;20.55;6.07;;;7.30;99.90;;;;;;5086100;28;20032;-72
2021/05/15 02:37:33;;;;;;;15.25;6.47;;;7.30;99.90;;;;;;5086309;28;20028;-73
2021/05/15 02:39:58;;;;;;;16.00;5.93;;;7.20;99.90;;;;;;5086124;28;20031;-73
2021/05/15 02:42:24;;;;;;;11.05;5.47;;;7.30;99.90;;;;;;5086169;28;20055;-74
2021/05/15 02:44:52;;;;;;;11.25;5.47;;;7.40;99.90;;;;;;5086340;28;20028;-73
2021/05/15 02:47:21;;;;;;;17.70;6.10;;;7.40;99.90;;;;;;5086116;28;20112;-74
2021/05/15 02:49:47;;;;;;;15.52;6.32;;;7.40;99.90;;;;;;5084777;28;20032;-73
2021/05/15 02:52:13;;;;;;;22.65;7.03;;;7.50;99.90;;;;;;5086004;28;20045;-73
2021/05/15 02:54:38;;;;;;;19.73;7.88;;;7.50;99.90;;;;;;5085538;28;20027;-72
2021/05/15 02:57:04;;;;;;;17.05;7.55;;;7.50;99.90;;;;;;5086019;28;20082;-73
2021/05/15 02:59:30;;;;;;;13.02;5.60;;;7.60;99.90;;;;;;5085979;28;20101;-74
2021/05/15 03:01:56;;;;;;;27.42;7.13;;;7.60;99.90;;;;;;5085471;28;20472;-73
2021/05/15 03:04:21;;;;;;;16.42;6.53;;;7.60;99.90;;;;;;5086145;28;20028;-74
2021/05/15 03:06:47;;;;;;;16.45;7.03;;;7.70;99.90;;;;;;5085725;28;20033;-75
2021/05/15 03:09:13;;;;;;;21.95;7.07;;;7.70;99.90;;;;;;5085598;28;20028;-73
2021/05/15 03:11:38;;;;;;;15.88;6.72;;;7.80;99.90;;;;;;5085431;28;20396;-73
2021/05/15 03:14:04;;;;;;;12.70;5.80;;;7.80;99.90;;;;;;5085387;28;20024;-73
2021/05/15 03:16:31;;;;;;;17.88;7.03;;;7.80;99.90;;;;;;5085293;28;20025;-73
2021/05/15 03:18:56;;;;;;;18.95;7.35;;;7.90;99.90;;;;;;5085524;28;20029;-74
2021/05/15 03:21:22;;;;;;;20.63;5.65;;;8.00;99.90;;;;;;5085100;28;20047;-74
2021/05/15 03:23:47;;;;;;;12.27;5.28;;;8.00;99.90;;;;;;5085287;28;20033;-75
2021/05/15 03:26:13;;;;;;;12.80;5.88;;;8.10;99.90;;;;;;5085700;28;20111;-74
2021/05/15 03:28:39;;;;;;;11.55;4.40;;;8.10;99.90;;;;;;5085166;28;20036;-74
2021/05/15 03:31:04;;;;;;;13.95;6.28;;;8.10;99.90;;;;;;5083750;28;20024;-74
2021/05/15 03:33:30;;;;;;;15.02;6.82;;;8.20;99.90;;;;;;5085116;28;20036;-75
2021/05/15 03:35:55;;;;;;;20.25;6.35;;;8.20;99.90;;;;;;5083577;28;20024;-74
2021/05/15 03:38:21;;;;;;;16.02;6.80;;;8.20;99.90;;;;;;5085078;28;20035;-73
2021/05/15 03:40:47;;;;;;;18.23;6.32;;;8.20;99.90;;;;;;5085397;28;20029;-75
2021/05/15 03:43:12;;;;;;;11.38;5.65;;;8.20;99.90;;;;;;5084829;28;20083;-73
2021/05/15 03:45:38;;;;;;;23.38;7.50;;;8.20;99.90;;;;;;5083732;28;20040;-74
2021/05/15 03:48:04;;;;;;;16.30;5.18;;;8.20;99.90;;;;;;5083574;28;20063;-74
2021/05/15 03:50:29;;;;;;;18.38;5.25;;;8.30;99.90;;;;;;5084237;28;20025;-74
2021/05/15 03:52:55;;;;;;;16.73;5.72;;;8.30;99.90;;;;;;5083699;28;20051;-74
2021/05/15 03:55:21;;;;;;;17.17;6.57;;;8.30;99.90;;;;;;5085023;28;20026;-75
2021/05/15 03:57:46;;;;;;;13.10;6.10;;;8.30;99.90;;;;;;5084936;28;20082;-73
2021/05/15 04:00:13;;;;;;;17.25;5.95;;;8.30;99.90;;;;;;5083742;28;20025;-74
2021/05/15 04:02:38;;;;;;;21.13;5.80;;;8.30;99.90;;;;;;5084697;28;20028;-73
2021/05/15 04:05:05;;;;;;;14.70;5.15;;;8.40;99.90;;;;;;5084583;28;20037;-74
2021/05/15 04:07:31;;;;;;;12.93;4.97;;;8.40;99.90;;;;;;5084985;28;20025;-74
2021/05/15 04:09:56;;;;;;;13.90;4.85;;;8.40;99.90;;;;;;5084663;28;20031;-73
2021/05/15 04:12:24;;;;;;;14.30;5.72;;;8.40;99.90;;;;;;5084355;28;20413;-74
2021/05/15 04:15:04;;;;;;;11.55;5.25;;;8.50;99.90;;;;;;5084662;28;20024;-74
2021/05/15 04:17:30;;;;;;;10.98;5.32;;;8.50;99.90;;;;;;5084497;28;20027;-74
2021/05/15 04:19:59;;;;;;;11.85;4.65;;;8.50;99.90;;;;;;5084603;28;20104;-74
2021/05/15 04:22:26;;;;;;;11.57;5.05;;;8.50;99.90;;;;;;5084690;28;20036;-73
2021/05/15 04:24:52;;;;;;;14.93;5.97;;;8.40;99.90;;;;;;5084323;28;20061;-72
2021/05/15 04:27:18;;;;;;;11.23;5.00;;;8.60;99.90;;;;;;5084851;28;20020;-75
2021/05/15 04:29:44;;;;;;;9.90;4.35;;;8.50;99.90;;;;;;5084710;28;20028;-72
2021/05/15 04:32:10;;;;;;;11.70;5.72;;;8.60;99.90;;;;;;5085358;28;20121;-73
2021/05/15 04:34:36;;;;;;;10.40;5.15;;;8.60;99.90;;;;;;5088768;28;20025;-73
2021/05/15 04:37:02;;;;;;;17.65;5.35;;;8.70;99.90;;;;;;5088232;28;20031;-74
2021/05/15 04:39:29;;;;;;;9.45;4.68;;;8.70;99.90;;;;;;5088675;28;20099;-73
2021/05/15 04:41:56;;;;;;;18.73;5.47;;;8.80;99.90;;;;;;5088669;28;20020;-74
2021/05/15 04:44:22;;;;;;;12.40;5.57;;;8.80;99.90;;;;;;5088249;28;20016;-74
2021/05/15 04:46:49;;;;;;;13.77;5.32;;;8.80;99.90;;;;;;5088604;28;20029;-74
2021/05/15 04:49:15;;;;;;;13.00;5.10;;;8.80;99.90;;;;;;5088410;28;20511;-73
2021/05/15 04:51:41;;;;;;;13.43;5.40;;;8.90;99.90;;;;;;5086425;28;20052;-73
2021/05/15 04:54:07;;;;;;;13.75;5.40;;;8.90;99.90;;;;;;5087148;28;20039;-72
2021/05/15 04:56:32;;;;;;;10.15;5.38;;;8.90;99.90;;;;;;5087112;28;20036;-73
2021/05/15 04:58:58;;;;;;;10.73;4.82;;;9.00;99.90;;;;;;5088013;28;20110;-73
2021/05/15 05:01:24;;;;;;;15.02;6.22;;;9.00;99.90;;;;;;5088472;28;20029;-73
2021/05/15 05:03:50;;;;;;;12.07;4.88;;;9.10;99.90;;;;;;5087051;28;20070;-74
2021/05/15 05:06:16;;;;;;;13.70;6.15;;;9.10;99.90;;;;;;5086488;28;20028;-73
2021/05/15 05:08:41;;;;;;;11.32;3.92;;;9.20;99.90;;;;;;5088016;28;20052;-74
2021/05/15 05:11:07;;;;;;;15.68;4.18;;;9.20;99.90;;;;;;5087816;28;20064;-73
2021/05/15 05:13:33;;;;;;;11.55;4.35;;;9.30;99.90;;;;;;5087689;28;20155;-73
2021/05/15 05:15:59;;;;;;;11.18;4.60;;;9.30;99.90;;;;;;5086786;28;20032;-73
2021/05/15 05:18:24;;;;;;;10.02;4.43;;;9.40;99.90;;;;;;5087808;28;20030;-74
2021/05/15 05:20:51;;;;;;;7.50;3.40;;;9.40;99.90;;;;;;5087821;28;20020;-73
2021/05/15 05:23:17;;;;;;;10.93;4.20;;;9.40;99.90;;;;;;5088091;28;20024;-74
2021/05/15 05:25:42;;;;;;;9.63;4.70;;;9.50;99.90;;;;;;5080973;28;20029;-73
2021/05/15 05:28:08;;;;;;;9.45;4.28;;;9.50;99.90;;;;;;5087156;28;20040;-73
2021/05/15 05:30:34;;;;;;;15.63;5.05;;;9.60;99.90;;;;;;5074100;28;20029;-74
2021/05/15 05:33:00;;;;;;;10.48;4.45;;;9.60;99.90;;;;;;5067401;28;20041;-72
2021/05/15 05:35:26;;;;;;;10.80;5.15;;;9.70;99.90;;;;;;5068987;28;20024;-73
2021/05/15 05:37:52;;;;;;;10.05;4.15;;;9.70;99.90;;;;;;5078632;28;20031;-72
2021/05/15 05:40:18;;;;;;;14.35;4.25;;;9.80;99.90;;;;;;5083225;28;20088;-73
2021/05/15 05:42:44;;;;;;;10.90;5.07;;;9.80;99.90;;;;;;5066960;28;20039;-74
2021/05/15 05:45:14;;;;;;;14.25;5.07;;;9.90;99.90;;;;;;5079573;28;20030;-73
2021/05/15 05:47:40;;;;;;;12.57;5.32;;;9.90;99.90;;;;;;5065676;28;20025;-73
2021/05/15 05:50:06;;;;;;;9.20;4.20;;;10.00;99.90;;;;;;5074001;28;20103;-73
2021/05/15 05:52:32;;;;;;;11.18;4.85;;;10.00;99.90;;;;;;5086053;28;20091;-74
2021/05/15 05:54:58;;;;;;;11.63;5.90;;;10.00;99.90;;;;;;5086975;28;20078;-74
2021/05/15 05:57:23;;;;;;;15.13;6.95;;;10.00;99.90;;;;;;5087166;28;20028;-73
2021/05/15 05:59:49;;;;;;;21.10;6.35;;;10.00;99.90;;;;;;5087128;28;20100;-74
2021/05/15 06:02:15;;;;;;;14.32;5.47;;;10.00;99.90;;;;;;5085606;28;20036;-72
2021/05/15 06:04:40;;;;;;;13.75;5.97;;;10.00;99.90;;;;;;5066970;28;20033;-72
2021/05/15 06:07:07;;;;;;;18.55;5.55;;;10.10;99.90;;;;;;5065611;28;20067;-72
2021/05/15 06:09:33;;;;;;;15.73;5.88;;;10.10;99.90;;;;;;5072495;28;20048;-73
2021/05/15 06:11:58;;;;;;;9.70;4.43;;;10.10;99.90;;;;;;5065653;28;20116;-72
2021/05/15 06:14:24;;;;;;;21.10;6.47;;;10.10;99.90;;;;;;5065485;28;20025;-75
2021/05/15 06:16:50;;;;;;;13.20;5.57;;;10.10;99.90;;;;;;5065880;28;20079;-76
2021/05/15 06:19:18;;;;;;;19.48;6.75;;;10.10;99.90;;;;;;5067219;28;20029;-71
2021/05/15 06:21:44;;;;;;;21.23;6.32;;;10.10;99.90;;;;;;5067077;28;20029;-71
2021/05/15 06:24:10;;;;;;;17.33;7.00;;;10.20;99.90;;;;;;5065052;28;20032;-72
2021/05/15 06:26:36;;;;;;;18.38;6.45;;;10.30;99.90;;;;;;5066584;28;20036;-72
2021/05/15 06:29:02;;;;;;;13.57;5.70;;;10.30;99.90;;;;;;5066402;28;20029;-71
2021/05/15 06:31:28;;;;;;;14.60;6.38;;;10.40;99.90;;;;;;5066207;28;20078;-72
2021/05/15 06:33:54;;;;;;;14.18;5.78;;;10.40;99.90;;;;;;5066420;28;20074;-71
2021/05/15 06:36:19;;;;;;;16.13;6.75;;;10.60;99.90;;;;;;5066345;28;20565;-70
2021/05/15 06:38:45;;;;;;;17.73;6.63;;;10.60;99.90;;;;;;5066367;28;20040;-72
2021/05/15 06:41:11;;;;;;;13.90;6.47;;;10.70;99.90;;;;;;5066359;28;20044;-71
2021/05/15 06:43:36;;;;;;;15.75;6.97;;;10.70;99.90;;;;;;5066087;28;20024;-72
2021/05/15 06:46:02;;;;;;;20.10;7.20;;;10.70;99.90;;;;;;5066131;28;20036;-70
2021/05/15 06:48:28;;;;;;;21.90;7.55;;;10.80;99.90;;;;;;5065765;28;20028;-70
2021/05/15 06:50:54;;;;;;;21.85;7.95;;;10.80;99.90;;;;;;5072060;28;20049;-70
2021/05/15 06:53:25;;;;;;;19.42;7.13;;;10.90;99.90;;;;;;5065163;28;20547;-71
2021/05/15 06:55:51;;;;;;;25.92;8.18;;;10.90;99.90;;;;;;5065220;28;20393;-70
2021/05/15 06:58:17;;;;;;;16.98;7.28;;;11.00;99.90;;;;;;5065493;28;20045;-71
2021/05/15 07:00:42;;;;;;;21.13;8.13;;;11.00;99.90;;;;;;5065795;28;20032;-71
2021/05/15 07:03:08;;;;;;;21.27;8.32;;;11.00;99.90;;;;;;5066233;28;20088;-71
2021/05/15 07:05:34;;;;;;;24.77;8.75;;;10.90;99.90;;;;;;5065403;28;20464;-70
2021/05/15 07:08:01;;;;;;;33.58;11.55;;;11.00;99.90;;;;;;5065744;28;20021;-70
2021/05/15 07:10:27;;;;;;;31.10;11.80;;;11.10;99.90;;;;;;5065506;28;20037;-73
2021/05/15 07:12:53;;;;;;;27.55;10.20;;;11.20;99.90;;;;;;5065212;28;20037;-71
2021/05/15 07:15:19;;;;;;;33.22;10.93;;;11.20;99.90;;;;;;5065690;28;20029;-72
2021/05/15 07:17:45;;;;;;;17.83;7.65;;;11.20;99.90;;;;;;5065737;28;20048;-69
2021/05/15 07:20:11;;;;;;;34.83;10.68;;;11.20;99.90;;;;;;5064847;28;20075;-72
2021/05/15 07:22:39;;;;;;;32.83;9.98;;;11.30;99.90;;;;;;5063698;28;20116;-72
2021/05/15 07:25:05;;;;;;;22.77;9.07;;;11.30;99.90;;;;;;5065310;28;20085;-72
2021/05/15 07:27:30;;;;;;;24.60;8.45;;;11.30;99.90;;;;;;5064819;28;20386;-71
2021/05/15 07:29:56;;;;;;;17.70;8.05;;;11.30;99.90;;;;;;5065356;28;20028;-69
2021/05/15 07:32:24;;;;;;;18.80;8.13;;;11.40;99.90;;;;;;5078407;28;20067;-72
2021/05/15 07:34:50;;;;;;;15.85;8.40;;;11.40;99.90;;;;;;5075777;28;20025;-73
2021/05/15 07:37:17;;;;;;;18.27;7.05;;;11.40;99.90;;;;;;5069025;28;20020;-73
2021/05/15 07:39:44;;;;;;;20.33;7.60;;;11.50;99.90;;;;;;5064541;28;20025;-70
2021/05/15 07:42:10;;;;;;;18.65;7.90;;;11.60;99.90;;;;;;5065072;28;20048;-72
2021/05/15 07:44:36;;;;;;;22.40;8.07;;;11.60;99.90;;;;;;5065201;28;20033;-71
2021/05/15 07:47:02;;;;;;;22.30;8.30;;;11.60;99.90;;;;;;5064613;28;20028;-71
2021/05/15 07:49:28;;;;;;;17.95;7.43;;;11.50;99.90;;;;;;5064955;28;20029;-70
2021/05/15 07:51:54;;;;;;;20.20;7.57;;;11.50;99.90;;;;;;5064204;28;20048;-71
2021/05/15 07:54:22;;;;;;;32.97;9.80;;;11.50;99.90;;;;;;5064714;28;20032;-72
2021/05/15 07:56:48;;;;;;;18.80;9.35;;;11.50;99.90;;;;;;5063375;28;20041;-72
2021/05/15 07:59:14;;;;;;;26.30;9.00;;;11.50;99.90;;;;;;5062646;28;20045;-71
2021/05/15 08:01:40;;;;;;;35.78;10.43;;;11.60;99.90;;;;;;5064028;28;20033;-71
2021/05/15 08:04:06;;;;;;;22.40;8.60;;;11.70;99.90;;;;;;5064270;28;20044;-70
2021/05/15 08:06:32;;;;;;;22.17;9.05;;;11.80;99.90;;;;;;5063096;28;20024;-69
2021/05/15 08:08:57;;;;;;;26.02;9.35;;;11.90;99.90;;;;;;5064592;28;20063;-71
2021/05/15 08:11:23;;;;;;;23.98;9.48;;;12.00;99.90;;;;;;5063782;28;20021;-70
2021/05/15 08:13:48;;;;;;;22.90;9.73;;;12.10;99.90;;;;;;5064207;28;20049;-73
2021/05/15 08:16:15;;;;;;;20.98;8.65;;;12.20;99.90;;;;;;5064429;28;20025;-70
2021/05/15 08:18:41;;;;;;;28.52;9.05;;;12.30;99.90;;;;;;5064446;28;20415;-69
2021/05/15 08:21:08;;;;;;;28.05;10.32;;;12.40;99.90;;;;;;5063925;28;20048;-71
2021/05/15 08:23:35;;;;;;;24.65;9.18;;;12.50;99.90;;;;;;5064217;28;20029;-72
2021/05/15 08:26:05;;;;;;;17.75;8.40;;;12.60;99.90;;;;;;5064072;28;20048;-71
2021/05/15 08:28:32;;;;;;;21.45;9.73;;;12.60;99.90;;;;;;5065107;28;20052;-71
2021/05/15 08:30:58;;;;;;;20.23;9.63;;;12.70;99.90;;;;;;5063414;28;20032;-70
2021/05/15 08:33:23;;;;;;;26.55;8.98;;;12.80;99.90;;;;;;5062728;28;20068;-71
2021/05/15 08:35:50;;;;;;;19.73;9.70;;;12.80;99.90;;;;;;5069705;28;20495;-72
2021/05/15 08:38:16;;;;;;;22.42;8.00;;;12.80;99.90;;;;;;5072411;28;20028;-70
2021/05/15 08:40:42;;;;;;;23.42;8.63;;;12.80;99.90;;;;;;5081463;28;20113;-71
2021/05/15 08:43:09;;;;;;;24.10;10.20;;;12.70;99.90;;;;;;5064152;28;20393;-72
2021/05/15 08:45:35;;;;;;;24.38;9.48;;;12.80;99.90;;;;;;5064327;28;20021;-72
2021/05/15 08:48:02;;;;;;;21.20;9.65;;;12.70;99.90;;;;;;5064170;28;20036;-70
2021/05/15 08:50:29;;;;;;;27.33;8.15;;;12.60;99.90;;;;;;5062567;28;20028;-71
2021/05/15 08:52:56;;;;;;;30.60;11.13;;;12.60;99.90;;;;;;5064257;28;20045;-70
2021/05/15 08:55:27;;;;;;;28.23;9.25;;;12.50;99.90;;;;;;5063792;28;20385;-71
2021/05/15 08:57:53;;;;;;;22.58;9.63;;;12.60;99.90;;;;;;5066976;28;20455;-69
2021/05/15 09:00:27;;;;;;;20.88;8.55;;;12.60;99.90;;;;;;5067156;28;20033;-71
2021/05/15 09:02:55;;;;;;;;;;;12.60;99.90;;;;;;5071249;28;20024;-70
2021/05/15 09:05:22;;;;;;;32.25;11.35;;;12.60;99.90;;;;;;5064470;28;19954;-71
2021/05/15 09:07:57;;;;;;;19.40;9.23;;;12.70;99.90;;;;;;5075455;28;20035;-72
2021/05/15 09:10:27;;;;;;;22.17;9.10;;;12.80;99.90;;;;;;5069404;28;20036;-70
2021/05/15 09:13:04;;;;;;;19.83;8.88;;;12.80;99.90;;;;;;5080465;28;20044;-70
2021/05/15 09:15:39;;;;;;;21.92;8.70;;;12.80;99.90;;;;;;5083171;28;20497;-70
2021/05/15 09:18:05;;;;;;;24.20;9.90;;;12.90;99.90;;;;;;5064764;28;20028;-72
2021/05/15 09:20:37;;;;;;;20.88;8.90;;;13.00;99.90;;;;;;5067827;28;20029;-71
2021/05/15 09:23:13;;;;;;;27.40;9.63;;;13.10;99.90;;;;;;5067681;28;20025;-70
2021/05/15 09:25:39;;;;;;;19.35;8.43;;;13.20;99.90;;;;;;5067522;28;20036;-70
2021/05/15 09:28:05;;;;;;;21.90;9.13;;;13.10;99.90;;;;;;5086809;28;20036;-73
2021/05/15 09:30:32;;;;;;;18.77;8.80;;;13.10;99.90;;;;;;5086936;28;20100;-70
2021/05/15 09:32:58;;;;;;;19.38;8.63;;;13.10;99.90;;;;;;5086784;28;20070;-71
2021/05/15 09:35:27;;;;;;;22.98;10.00;;;13.10;99.90;;;;;;5087680;28;20353;-71
2021/05/15 09:37:53;;;;;;;32.40;9.32;;;13.00;99.90;;;;;;5071109;28;20029;-73
2021/05/15 09:40:24;;;;;;;20.60;9.40;;;13.00;99.90;;;;;;5067099;28;20080;-72
2021/05/15 09:42:50;;;;;;;22.35;8.45;;;12.90;99.90;;;;;;5065888;28;20029;-68
2021/05/15 09:45:27;;;;;;;20.98;9.05;;;12.80;99.90;;;;;;5080425;28;20024;-69
2021/05/15 09:48:01;;;;;;;20.65;8.43;;;12.80;99.90;;;;;;5086654;28;20535;-70
2021/05/15 09:50:29;;;;;;;28.80;8.80;;;12.80;99.90;;;;;;5085450;28;20044;-69
2021/05/15 09:53:08;;;;;;;34.90;10.18;;;12.80;99.90;;;;;;5086282;28;20036;-69
2021/05/15 09:55:34;;;;;;;24.63;9.32;;;12.80;99.90;;;;;;5086917;28;20028;-69
2021/05/15 09:58:03;;;;;;;20.55;9.18;;;12.70;99.90;;;;;;5074416;28;20021;-71
2021/05/15 10:00:39;;;;;;;22.13;8.85;;;12.70;99.90;;;;;;5067721;28;20033;-70
2021/05/15 10:03:04;;;;;;;18.10;8.40;;;12.70;99.90;;;;;;5078216;28;20037;-68
2021/05/15 10:05:30;;;;;;;21.67;8.57;;;12.70;99.90;;;;;;5086835;28;20053;-70
2021/05/15 10:08:05;;;;;;;20.00;8.68;;;12.80;99.90;;;;;;5086971;28;20020;-71
2021/05/15 10:10:31;;;;;;;23.40;8.40;;;12.80;99.90;;;;;;5084501;28;20031;-70
2021/05/15 10:12:57;;;;;;;16.75;7.72;;;13.00;99.90;;;;;;5066472;28;20036;-68
2021/05/15 10:15:24;;;;;;;16.40;8.25;;;13.20;99.90;;;;;;5065529;28;20025;-71
2021/05/15 10:17:51;;;;;;;28.23;8.95;;;13.70;99.90;;;;;;5066756;28;20059;-70
2021/05/15 10:20:17;;;;;;;17.38;8.05;;;13.90;99.90;;;;;;5066855;28;20444;-74
2021/05/15 10:22:44;;;;;;;21.95;8.07;;;14.20;99.90;;;;;;5065239;28;20052;-69
2021/05/15 10:25:12;;;;;;;22.67;8.60;;;14.30;99.90;;;;;;5066544;28;20025;-69
2021/05/15 10:27:38;;;;;;;19.23;8.43;;;14.40;99.90;;;;;;5066365;28;20037;-69
2021/05/15 10:30:21;;;;;;;21.00;7.57;;;14.30;99.90;;;;;;5064938;28;20104;-69
2021/05/15 10:32:54;;;;;;;21.35;9.45;;;14.30;99.90;;;;;;5066240;28;20041;-68
2021/05/15 10:35:28;;;;;;;23.45;9.18;;;14.30;99.90;;;;;;5066639;28;20044;-70
2021/05/15 10:38:06;;;;;;;19.10;9.32;;;14.20;99.90;;;;;;5065333;28;20097;-71
2021/05/15 10:40:43;;;;;;;25.63;9.70;;;14.10;99.90;;;;;;5070278;28;20032;-70
2021/05/15 10:43:08;;;;;;;23.63;10.55;;;13.80;99.90;;;;;;5072111;28;20028;-70
2021/05/15 10:45:42;;;;;;;18.40;10.00;;;13.70;99.90;;;;;;5086173;28;20114;-69
2021/05/15 10:48:23;;;;;;;22.02;9.77;;;13.60;99.90;;;;;;5065987;28;20091;-69
2021/05/15 10:50:55;;;;;;;23.00;9.77;;;13.50;99.90;;;;;;5065942;28;20053;-69
2021/05/15 10:53:32;;;;;;;20.27;8.73;;;13.50;99.90;;;;;;5065899;28;20045;-70
2021/05/15 10:56:10;;;;;;;28.23;9.93;;;13.40;99.90;;;;;;5064705;28;20029;-69
2021/05/15 10:58:41;;;;;;;20.75;9.48;;;13.30;99.90;;;;;;5082059;28;20032;-69
2021/05/15 11:01:15;;;;;;;21.17;9.55;;;13.30;99.90;;;;;;5085058;28;20040;-69
2021/05/15 11:03:41;;;;;;;;;;;13.30;99.90;;;;;;5085717;28;20036;-70
2021/05/15 11:06:24;;;;;;;26.90;9.32;;;13.40;99.90;;;;;;5085142;28;19909;-68
2021/05/15 11:09:04;;;;;;;28.13;9.02;;;13.40;99.90;;;;;;5084673;28;20556;-71
2021/05/15 11:11:44;;;;;;;24.27;10.23;;;13.40;99.90;;;;;;5084978;28;20031;-69
2021/05/15 11:14:39;;;;;;;23.98;9.68;;;13.40;99.90;;;;;;5084748;28;20028;-70
2021/05/15 11:17:13;;;;;;;26.38;9.38;;;13.50;99.90;;;;;;5084686;28;20105;-70
2021/05/15 11:19:54;;;;;;;23.15;10.18;;;13.50;99.90;;;;;;5084295;28;20109;-70
2021/05/15 11:22:33;;;;;;;25.95;10.18;;;13.80;99.90;;;;;;5064138;28;20048;-70
2021/05/15 11:24:58;;;;;;;23.27;10.85;;;13.80;99.90;;;;;;5064501;28;20048;-70
2021/05/15 11:27:24;;;;;;;26.55;10.10;;;13.90;99.90;;;;;;5064283;28;20033;-69
2021/05/15 11:30:05;;;;;;;27.08;10.85;;;14.10;99.90;;;;;;5064264;28;20381;-69
2021/05/15 11:32:30;;;;;;;24.38;10.77;;;14.40;99.90;;;;;;5064239;28;20064;-69
2021/05/15 11:34:56;;;;;;;21.33;10.57;;;14.80;99.90;;;;;;5064203;28;20029;-71
2021/05/15 11:37:22;;;;;;;25.10;10.05;;;15.10;99.90;;;;;;5064495;28;20077;-71
2021/05/15 11:39:54;;;;;;;22.67;10.98;;;15.00;99.90;;;;;;5064924;28;20040;-71
2021/05/15 11:42:26;;;;;;;19.23;9.70;;;15.00;99.90;;;;;;5064187;28;20036;-69
2021/05/15 11:44:52;;;;;;;32.80;10.38;;;15.00;99.90;;;;;;5064546;28;20060;-70
2021/05/15 11:47:22;;;;;;;19.70;9.57;;;15.30;99.90;;;;;;5063050;28;20389;-70
2021/05/15 11:50:01;;;;;;;23.65;9.90;;;15.60;99.90;;;;;;5064081;28;20020;-69
2021/05/15 11:52:34;;;;;;;19.42;9.98;;;16.00;99.90;;;;;;5063756;28;20501;-70
2021/05/15 11:55:01;;;;;;;18.67;9.57;;;16.50;99.90;;;;;;5064229;28;20104;-69
2021/05/15 11:57:31;;;;;;;20.65;9.82;;;17.10;99.90;;;;;;5063476;28;20028;-71
2021/05/15 12:00:15;;;;;;;26.83;9.88;;;17.60;99.90;;;;;;5064315;28;20029;-68
2021/05/15 12:02:47;;;;;;;18.67;8.50;;;17.80;99.90;;;;;;5063885;28;20039;-69
2021/05/15 12:05:15;;;;;;;21.00;9.68;;;17.80;99.90;;;;;;5064122;28;20037;-69
2021/05/15 12:07:48;;;;;;;19.02;9.20;;;17.60;99.90;;;;;;5063917;28;20017;-70
2021/05/15 12:10:22;;;;;;;19.10;8.85;;;17.50;99.90;;;;;;5062487;28;20025;-71
2021/05/15 12:12:58;;;;;;;;;;;17.30;99.90;;;;;;5064415;28;20110;-69
2021/05/15 12:15:24;;;;;;;19.08;10.07;;;17.10;99.90;;;;;;5063701;28;19909;-68
2021/05/15 12:17:51;;;;;;;17.75;9.05;;;17.00;99.90;;;;;;5063792;28;20021;-69
2021/05/15 12:20:30;;;;;;;21.10;8.50;;;16.80;99.90;;;;;;5064079;28;20033;-71
2021/05/15 12:23:07;;;;;;;23.70;9.55;;;16.70;99.90;;;;;;5062293;28;20062;-69
2021/05/15 12:25:34;;;;;;;21.58;10.10;;;16.70;99.90;;;;;;5063237;28;20025;-70
2021/05/15 12:27:59;;;;;;;15.48;9.10;;;16.60;99.90;;;;;;5063489;28;20029;-70
2021/05/15 12:30:26;;;;;;;20.40;9.73;;;16.50;99.90;;;;;;5063703;28;20043;-71
2021/05/15 12:33:02;;;;;;;20.60;10.13;;;16.50;99.90;;;;;;5063870;28;20037;-69
2021/05/15 12:35:28;;;;;;;22.25;10.65;;;16.40;99.90;;;;;;5063773;28;20096;-68
2021/05/15 12:37:57;;;;;;;18.95;10.18;;;16.30;99.90;;;;;;5063625;28;20025;-69
2021/05/15 12:40:27;;;;;;;26.50;10.90;;;16.20;99.90;;;;;;5063890;28;20025;-71
2021/05/15 12:42:52;;;;;;;21.92;10.65;;;16.10;99.90;;;;;;5063407;28;20102;-72